Ares, Brazil
Current Conditions -  °F | °C
As of 3:00 PM on Thursday 23 Oct 2014 (Local Time) from SBNT Reporting Station
Broken Clouds Broken Clouds  
Wind Chill: 82°   Ceiling: 2200
Heat Index: 86°   Visibility: 6mi
Dew Point: 70°   Wind: 22mph
Humidity: 66%   Direction: 120°ESE
Pressure: 29.88"   Gusts: NA
Location:  6.19°S, 35.16°W
Report Text: SBNT 231800Z 12019KT 9999 BKN022 28/21 Q1012
Loading
Personal Weather Stations






























Interactive Weather Map
Tropical Storm Tracking
New forecast layout! Learn more

10-Day Weather Forecast

Advertisements
Track Severe Weather on mobile